Time;durP1;ratioP1;P1;durP2;ratioP2;P2;SDS_P1;SDS_P2;PMS_P1;PMS_P2;Temp;Humidity;BMP_temperature;BMP_pressure;BME280_temperature;BME280_humidity;BME280_pressure;Samples;Min_cycle;Max_cycle;Signal;HPM_P1;HPM_P2
2022/05/01 00:00:59;;;;;;;12.30;5.20;;;;;;;17.78;48.88;98321.47;4456480;32;20106;-79
2022/05/01 00:03:34;;;;;;;9.70;4.70;;;;;;;17.58;49.38;98323.59;4456984;32;20567;-79
2022/05/01 00:06:06;;;;;;;9.73;4.62;;;;;;;17.86;48.64;98321.75;4456931;32;20113;-79
2022/05/01 00:08:36;;;;;;;11.45;5.65;;;;;;;17.77;49.37;98327.62;4457131;32;20180;-79
2022/05/01 00:11:03;;;;;;;10.32;4.97;;;;;;;18.04;48.31;98323.13;4456989;32;20176;-79
2022/05/01 00:13:42;;;;;;;10.75;5.45;;;;;;;17.90;48.67;98315.41;4456724;32;20538;-79
2022/05/01 00:16:09;;;;;;;10.68;4.80;;;;;;;17.87;48.52;98318.22;4456768;32;20097;-79
2022/05/01 00:18:37;;;;;;;10.75;5.57;;;;;;;18.17;48.21;98310.03;4456890;32;20113;-79
2022/05/01 00:21:04;;;;;;;12.98;5.85;;;;;;;17.73;50.35;98308.69;4456502;32;20512;-79
2022/05/01 00:23:31;;;;;;;12.20;5.45;;;;;;;17.11;50.95;98313.66;4442936;32;20093;-79
2022/05/01 00:25:59;;;;;;;13.05;5.55;;;;;;;17.33;51.04;98303.53;4456524;32;20168;-79
2022/05/01 00:28:26;;;;;;;18.20;5.70;;;;;;;18.34;48.72;98312.31;4442528;32;20502;-79
2022/05/01 00:30:53;;;;;;;11.73;5.20;;;;;;;18.12;49.46;98318.22;4456826;32;20095;-79
2022/05/01 00:38:55;;;;;;;10.07;4.95;;;;;;;18.19;49.61;98313.41;4456715;32;20431;-79
2022/05/01 00:41:24;;;;;;;11.35;5.32;;;;;;;18.73;48.53;98315.72;4456495;32;20085;-79
2022/05/01 00:44:10;;;;;;;12.37;5.55;;;;;;;18.64;48.55;98311.97;4456743;32;20134;-79
2022/05/01 00:46:41;;;;;;;12.35;6.55;;;;;;;18.43;49.36;98305.62;4456655;32;20154;-79
2022/05/01 00:49:11;;;;;;;13.85;6.85;;;;;;;18.46;49.09;98313.22;4455836;32;20111;-79
2022/05/01 00:51:50;;;;;;;11.77;6.22;;;;;;;18.31;49.10;98306.50;4456623;32;20100;-79
2022/05/01 00:54:18;;;;;;;14.05;6.20;;;;;;;18.01;49.97;98314.66;4456719;32;20127;-79
2022/05/01 00:56:49;;;;;;;12.35;5.90;;;;;;;18.28;47.81;98311.91;4442339;32;20487;-79
2022/05/01 00:59:17;;;;;;;12.70;6.00;;;;;;;18.24;47.01;98316.53;4456608;32;20116;-79
2022/05/01 01:01:47;;;;;;;12.10;6.35;;;;;;;19.29;46.19;98316.81;4456627;32;20137;-79
2022/05/01 01:04:14;;;;;;;13.20;6.62;;;;;;;19.06;47.21;98321.12;4456272;32;20512;-79
2022/05/01 01:06:43;;;;;;;13.80;7.25;;;;;;;19.32;45.92;98318.34;4456578;32;20420;-79
2022/05/01 01:09:10;;;;;;;13.48;6.25;;;;;;;19.50;46.49;98317.00;4456482;32;20518;-79
2022/05/01 01:11:38;;;;;;;12.75;6.32;;;;;;;18.89;48.09;98311.03;4456303;32;20085;-79
2022/05/01 01:14:05;;;;;;;14.43;6.10;;;;;;;18.83;48.18;98305.44;4456468;32;20097;-79
2022/05/01 01:16:34;;;;;;;14.43;6.65;;;;;;;19.08;47.54;98311.38;4455943;32;20089;-79
2022/05/01 01:19:08;;;;;;;13.48;6.40;;;;;;;18.46;49.08;98315.84;4456407;32;20495;-79
2022/05/01 01:21:36;;;;;;;12.48;5.57;;;;;;;19.18;46.61;98316.75;4456564;32;20120;-79
2022/05/01 01:24:06;;;;;;;11.18;5.70;;;;;;;18.87;47.79;98312.09;4456010;32;20124;-79
2022/05/01 01:26:36;;;;;;;11.05;5.43;;;;;;;18.23;49.01;98311.41;4456521;32;20141;-79
2022/05/01 01:31:40;;;;;;;11.43;5.62;;;;;;;18.62;48.04;98310.38;4442862;32;20131;-79
2022/05/01 01:31:53;;;;;;;12.77;5.93;;;;;;;18.92;46.90;98307.34;4456173;32;20168;-79
2022/05/01 01:34:22;;;;;;;10.77;5.15;;;;;;;16.61;52.71;98301.25;4442526;32;20081;-79
2022/05/01 01:36:50;;;;;;;11.50;5.40;;;;;;;16.22;55.05;98300.19;4455061;32;20463;-79
2022/05/01 01:39:18;;;;;;;10.07;5.12;;;;;;;17.74;51.34;98299.94;4455974;32;20096;-79
2022/05/01 01:41:47;;;;;;;10.32;5.05;;;;;;;18.13;51.74;98303.38;4455061;32;20104;-79
2022/05/01 01:44:14;;;;;;;10.50;5.30;;;;;;;18.28;51.70;98297.06;4455103;32;20077;-79
2022/05/01 01:46:42;;;;;;;12.93;6.12;;;;;;;18.18;52.14;98291.69;4456041;32;20608;-79
2022/05/01 01:49:10;;;;;;;11.45;5.40;;;;;;;17.97;52.39;98297.53;4456312;32;20427;-79
2022/05/01 01:51:37;;;;;;;12.02;6.07;;;;;;;17.59;53.87;98293.13;4456002;32;20152;-79
2022/05/01 01:54:06;;;;;;;12.35;6.10;;;;;;;18.02;51.97;98298.06;4456154;32;20077;-79
2022/05/01 01:56:37;;;;;;;12.60;6.07;;;;;;;18.08;49.98;98289.81;4456181;32;20157;-79
2022/05/01 01:59:04;;;;;;;12.68;5.87;;;;;;;18.08;50.46;98290.66;4455766;32;20088;-79
2022/05/01 02:01:31;;;;;;;12.15;6.10;;;;;;;17.37;52.79;98275.47;4454974;32;20502;-79
2022/05/01 02:03:58;;;;;;;11.18;5.90;;;;;;;17.83;51.27;98285.44;4456081;32;20086;-79
2022/05/01 02:06:25;;;;;;;10.77;5.07;;;;;;;18.78;48.77;98283.06;4455727;32;20436;-79
2022/05/01 02:08:52;;;;;;;11.32;4.68;;;;;;;19.49;47.75;98285.72;4456042;32;20176;-79
2022/05/01 02:11:20;;;;;;;10.75;4.72;;;;;;;18.60;49.47;98279.09;4456080;32;20095;-79
2022/05/01 02:13:47;;;;;;;10.38;4.68;;;;;;;18.36;50.46;98281.69;4455831;32;20107;-79
2022/05/01 02:16:14;;;;;;;12.90;5.00;;;;;;;18.02;51.18;98277.16;4456011;32;20097;-79
2022/05/01 02:18:41;;;;;;;12.73;5.57;;;;;;;18.05;51.09;98274.34;4456082;32;20097;-79
2022/05/01 02:23:53;;;;;;;10.65;5.40;;;;;;;15.85;55.73;98268.63;4456060;32;20121;-79
2022/05/01 02:26:20;;;;;;;11.02;5.50;;;;;;;15.50;56.66;98270.69;4455851;32;20113;-79
2022/05/01 02:28:47;;;;;;;12.52;5.20;;;;;;;16.83;51.48;98262.50;4455511;32;20184;-79
2022/05/01 02:31:14;;;;;;;11.25;5.22;;;;;;;17.27;51.66;98270.03;4455962;32;20085;-79
2022/05/01 02:33:41;;;;;;;12.15;6.00;;;;;;;17.26;51.79;98260.53;4455604;32;20089;-79
2022/05/01 02:36:08;;;;;;;10.73;4.97;;;;;;;17.40;51.97;98267.44;4455365;32;20092;-79
2022/05/01 02:38:36;;;;;;;12.55;5.80;;;;;;;18.32;49.75;98269.81;4455779;32;20144;-79
2022/05/01 02:41:03;;;;;;;10.80;5.70;;;;;;;17.92;50.60;98269.13;4455502;32;20115;-79
2022/05/01 02:43:30;;;;;;;12.75;5.82;;;;;;;18.19;50.32;98267.22;4455861;32;20117;-79
2022/05/01 02:45:57;;;;;;;12.13;5.72;;;;;;;17.97;50.17;98267.06;4455534;32;20419;-79
2022/05/01 02:48:24;;;;;;;11.82;5.62;;;;;;;17.13;51.93;98266.66;4455368;32;20173;-79
2022/05/01 02:50:51;;;;;;;12.70;6.03;;;;;;;17.17;51.33;98263.75;4455724;32;20103;-79
2022/05/01 02:53:18;;;;;;;14.00;6.22;;;;;;;17.02;53.48;98262.16;4455722;32;20157;-79
2022/05/01 02:55:45;;;;;;;12.30;5.78;;;;;;;17.94;50.62;98272.47;4455049;32;20165;-79
2022/05/01 02:58:12;;;;;;;11.38;5.40;;;;;;;18.39;49.63;98270.19;4455524;32;20587;-79
2022/05/01 03:00:40;;;;;;;11.68;5.18;;;;;;;18.62;49.40;98269.41;4455527;32;20151;-79
2022/05/01 03:03:07;;;;;;;11.90;5.70;;;;;;;18.96;48.71;98272.22;4455211;32;20124;-79
2022/05/01 03:05:34;;;;;;;12.68;5.47;;;;;;;18.78;48.62;98269.97;4455406;32;20098;-79
2022/05/01 03:08:01;;;;;;;11.55;5.70;;;;;;;19.27;46.57;98268.16;4455403;32;20084;-79
2022/05/01 03:10:27;;;;;;;11.77;5.07;;;;;;;19.10;46.27;98272.03;4455047;32;20103;-79
2022/05/01 03:12:54;;;;;;;10.63;5.07;;;;;;;19.07;46.87;98272.25;4455925;32;20157;-79
2022/05/01 03:15:24;;;;;;;12.80;5.78;;;;;;;18.75;48.12;98269.38;4457199;32;20164;-79
2022/05/01 03:23:22;;;;;;;12.15;5.60;;;;;;;18.27;49.67;98268.44;4457002;32;20442;-79
2022/05/01 03:25:49;;;;;;;13.15;5.70;;;;;;;18.42;48.93;98263.00;4457108;32;20435;-79
2022/05/01 03:28:16;;;;;;;11.65;5.62;;;;;;;18.55;48.60;98262.09;4457275;32;20164;-79
2022/05/01 03:30:44;;;;;;;10.85;5.53;;;;;;;18.60;48.11;98263.44;4457001;32;20076;-79
2022/05/01 03:33:11;;;;;;;12.07;5.57;;;;;;;18.90;46.82;98268.25;4457153;32;20088;-79
2022/05/01 03:35:38;;;;;;;13.60;5.97;;;;;;;18.90;47.03;98263.03;4456805;32;20429;-79
2022/05/01 03:38:09;;;;;;;11.05;5.72;;;;;;;19.32;45.90;98268.66;4456727;32;20093;-79
2022/05/01 03:40:35;;;;;;;10.65;5.75;;;;;;;19.39;45.39;98269.88;4457237;32;20408;-79
2022/05/01 03:43:04;;;;;;;10.63;5.25;;;;;;;19.77;44.73;98279.22;4457189;32;20111;-79
2022/05/01 03:45:31;;;;;;;10.15;4.90;;;;;;;19.15;47.04;98279.56;4442617;32;20105;-79
2022/05/01 03:47:58;;;;;;;10.43;4.53;;;;;;;17.87;50.99;98279.91;4457230;32;20635;-79
2022/05/01 03:50:25;;;;;;;10.63;5.05;;;;;;;17.47;53.28;98288.72;4443147;32;20161;-79
2022/05/01 03:52:52;;;;;;;16.67;5.07;;;;;;;15.66;60.37;98283.66;4456690;32;20152;-79
2022/05/01 03:55:19;;;;;;;10.57;5.25;;;;;;;17.51;53.57;98277.97;4456874;32;20136;-79
2022/05/01 03:57:46;;;;;;;10.38;4.90;;;;;;;17.37;54.14;98280.69;4456755;32;20089;-79
2022/05/01 04:00:18;;;;;;;11.30;5.70;;;;;;;17.60;53.53;98285.19;4456917;32;20085;-79
2022/05/01 04:02:46;;;;;;;12.30;5.95;;;;;;;17.43;53.59;98285.47;4457140;32;20069;-79
2022/05/01 04:05:14;;;;;;;13.68;6.45;;;;;;;17.84;52.19;98285.31;4456488;32;20084;-79
2022/05/01 04:07:42;;;;;;;11.75;6.32;;;;;;;17.41;52.42;98289.97;4457062;32;20116;-79
2022/05/01 04:10:11;;;;;;;12.23;6.30;;;;;;;18.01;50.74;98280.72;4456812;32;20099;-79
2022/05/01 04:12:42;;;;;;;11.90;6.00;;;;;;;18.24;49.08;98292.19;4456660;32;20538;-79
2022/05/01 04:15:11;;;;;;;12.10;6.25;;;;;;;19.16;47.29;98300.34;4456896;32;20405;-79
2022/05/01 04:17:40;;;;;;;11.95;5.30;;;;;;;18.84;48.82;98291.41;4456846;32;20090;-79
2022/05/01 04:20:15;;;;;;;12.43;6.05;;;;;;;18.90;48.60;98298.78;4456479;32;20436;-79
2022/05/01 04:22:44;;;;;;;12.65;6.00;;;;;;;18.56;49.50;98295.97;4456829;32;20107;-79
2022/05/01 04:25:18;;;;;;;14.00;6.68;;;;;;;18.33;48.50;98291.53;4455962;32;20152;-79
2022/05/01 04:27:47;;;;;;;12.32;5.93;;;;;;;18.14;49.70;98292.81;4456563;32;20163;-79
2022/05/01 04:30:15;;;;;;;14.98;6.62;;;;;;;17.88;50.73;98296.41;4456779;32;20145;-79
2022/05/01 04:32:56;;;;;;;14.10;6.45;;;;;;;17.64;50.87;98285.81;4456821;32;20144;-79
2022/05/01 04:35:34;;;;;;;12.82;6.45;;;;;;;17.87;50.16;98292.13;4456465;32;20439;-79
2022/05/01 04:38:03;;;;;;;12.75;6.30;;;;;;;18.00;50.46;98298.16;4443866;32;20119;-79
2022/05/01 04:40:35;;;;;;;11.98;6.00;;;;;;;18.79;48.43;98297.78;4456521;32;20102;-79
2022/05/01 04:43:10;;;;;;;13.05;6.95;;;;;;;19.06;47.88;98296.75;4456764;32;20085;-79
2022/05/01 04:45:38;;;;;;;12.93;6.43;;;;;;;19.12;48.06;98300.69;4456556;32;20127;-79
2022/05/01 04:48:07;;;;;;;11.15;5.80;;;;;;;19.21;48.85;98307.84;4456407;32;20127;-79
2022/05/01 04:50:35;;;;;;;11.25;6.12;;;;;;;19.27;49.15;98304.78;4456684;32;20499;-79
2022/05/01 04:53:03;;;;;;;14.48;6.57;;;;;;;19.81;47.88;98312.94;4456613;32;20076;-79
2022/05/01 04:55:30;;;;;;;13.20;6.20;;;;;;;20.12;46.49;98300.09;4456248;32;20167;-79
2022/05/01 04:57:57;;;;;;;14.90;6.40;;;;;;;20.10;45.86;98307.25;4456569;32;20160;-79
2022/05/01 05:00:26;;;;;;;12.93;7.00;;;;;;;19.86;47.03;98305.53;4456447;32;20095;-79
2022/05/01 05:02:56;;;;;;;12.70;6.43;;;;;;;19.30;47.84;98305.41;4456232;32;20128;-79
2022/05/01 05:05:26;;;;;;;12.98;6.15;;;;;;;19.38;47.65;98304.84;4456532;32;20112;-79
2022/05/01 05:07:54;;;;;;;14.23;6.60;;;;;;;18.63;50.30;98302.44;4442442;32;20200;-79
2022/05/01 05:10:21;;;;;;;12.85;6.78;;;;;;;18.87;51.07;98296.41;4456446;32;20159;-79
2022/05/01 05:12:49;;;;;;;15.18;7.35;;;;;;;19.42;49.20;98308.03;4442580;32;20107;-79
2022/05/01 05:15:20;;;;;;;13.90;7.10;;;;;;;18.39;50.84;98304.16;4456121;32;20139;-79
2022/05/01 05:17:48;;;;;;;17.83;7.70;;;;;;;18.13;50.02;98303.38;4456395;32;20097;-79
2022/05/01 05:20:15;;;;;;;12.85;6.90;;;;;;;17.33;53.43;98308.75;4456446;32;20104;-79
2022/05/01 05:22:42;;;;;;;13.40;7.22;;;;;;;17.33;53.94;98310.50;4456114;32;20099;-79
2022/05/01 05:25:11;;;;;;;14.73;7.45;;;;;;;16.97;54.50;98304.16;4456171;32;20096;-79
2022/05/01 05:27:39;;;;;;;16.02;7.87;;;;;;;17.01;54.96;98316.06;4456535;32;20153;-79
2022/05/01 05:30:06;;;;;;;15.63;7.55;;;;;;;16.55;57.57;98315.50;4455915;32;20107;-79
2022/05/01 05:32:35;;;;;;;15.52;7.53;;;;;;;17.42;54.65;98316.87;4456388;32;20096;-79
2022/05/01 05:35:03;;;;;;;15.38;8.05;;;;;;;17.38;55.04;98326.69;4455973;32;20523;-79
2022/05/01 05:37:33;;;;;;;15.25;7.80;;;;;;;17.71;54.49;98323.63;4455701;32;20123;-79
2022/05/01 05:40:00;;;;;;;14.87;7.43;;;;;;;18.03;54.44;98331.87;4456344;32;20476;-79
2022/05/01 05:42:27;;;;;;;15.55;8.38;;;;;;;18.53;53.28;98327.53;4456348;32;20084;-79
2022/05/01 05:44:54;;;;;;;18.35;7.75;;;;;;;18.65;53.03;98334.53;4455801;32;20110;-79
2022/05/01 05:47:21;;;;;;;15.85;8.27;;;;;;;18.01;54.06;98325.13;4456393;32;20141;-79
2022/05/01 05:49:48;;;;;;;17.20;8.02;;;;;;;18.36;52.84;98330.50;4456091;32;20487;-79
2022/05/01 05:52:20;;;;;;;17.90;8.07;;;;;;;17.98;55.29;98327.94;4456120;32;20114;-79
2022/05/01 05:54:47;;;;;;;15.43;8.50;;;;;;;17.75;56.85;98332.09;4456142;32;20121;-79
2022/05/01 05:57:14;;;;;;;16.83;8.80;;;;;;;18.18;55.34;98337.81;4455847;32;20113;-79
2022/05/01 05:59:41;;;;;;;14.77;8.07;;;;;;;18.92;52.74;98325.66;4456065;32;20144;-79
2022/05/01 06:02:09;;;;;;;15.52;8.07;;;;;;;17.16;59.32;98329.03;4456216;32;20089;-79
2022/05/01 06:04:37;;;;;;;14.98;8.35;;;;;;;18.17;56.47;98339.59;4455730;32;20105;-79
2022/05/01 06:07:04;;;;;;;16.45;8.75;;;;;;;18.00;57.02;98333.88;4456070;32;20123;-79
2022/05/01 06:09:32;;;;;;;14.82;7.87;;;;;;;17.91;58.53;98338.78;4456056;32;20477;-79
2022/05/01 06:11:59;;;;;;;13.52;7.07;;;;;;;16.78;60.04;98338.34;4455704;32;20428;-79
2022/05/01 06:14:26;;;;;;;13.90;6.95;;;;;;;17.28;59.40;98341.25;4455859;32;20106;-79
2022/05/01 06:16:53;;;;;;;15.65;7.22;;;;;;;17.62;58.17;98334.66;4455943;32;20514;-79
2022/05/01 06:19:20;;;;;;;15.68;7.72;;;;;;;17.26;59.28;98343.97;4455750;32;20136;-79
2022/05/01 06:21:47;;;;;;;13.88;7.12;;;;;;;18.12;56.02;98343.50;4456041;32;20140;-79
2022/05/01 06:24:14;;;;;;;14.52;7.85;;;;;;;17.37;56.24;98345.88;4456057;32;20626;-79
2022/05/01 06:26:41;;;;;;;15.43;7.70;;;;;;;17.19;57.07;98350.50;4455634;32;20112;-79
2022/05/01 06:29:08;;;;;;;16.37;7.55;;;;;;;17.06;57.84;98352.25;4455927;32;20080;-79
2022/05/01 06:31:39;;;;;;;18.73;7.87;;;;;;;16.55;60.27;98351.97;4455921;32;20085;-79
2022/05/01 06:34:06;;;;;;;16.50;7.85;;;;;;;17.50;57.16;98351.12;4427117;32;475629;-79
2022/05/01 06:36:33;;;;;;;16.08;8.70;;;;;;;18.31;53.97;98356.94;4453148;32;20123;-79
2022/05/01 06:39:00;;;;;;;14.90;7.50;;;;;;;17.61;55.76;98349.47;4455552;32;20138;-79
2022/05/01 06:41:27;;;;;;;16.58;8.15;;;;;;;17.81;55.07;98352.56;4455576;32;20190;-79
2022/05/01 06:43:54;;;;;;;20.00;8.25;;;;;;;16.92;58.49;98350.53;4455747;32;20137;-79
2022/05/01 06:46:21;;;;;;;15.43;7.95;;;;;;;17.66;57.33;98350.97;4455480;32;20097;-79
2022/05/01 06:48:48;;;;;;;16.77;7.97;;;;;;;16.39;61.20;98349.47;4454934;32;20097;-79
2022/05/01 06:51:15;;;;;;;16.35;8.70;;;;;;;16.52;61.70;98349.56;4455742;32;20098;-79
2022/05/01 06:53:42;;;;;;;15.27;8.00;;;;;;;16.15;62.51;98354.41;4455372;32;20097;-79
2022/05/01 06:56:09;;;;;;;15.93;8.07;;;;;;;17.54;60.23;98348.19;4454439;32;20162;-79
2022/05/01 06:58:36;;;;;;;14.57;8.25;;;;;;;17.70;60.38;98347.22;4455583;32;20089;-79
2022/05/01 07:01:03;;;;;;;17.73;8.18;;;;;;;18.19;57.42;98349.97;4453821;32;20073;-79
2022/05/01 07:03:30;;;;;;;12.18;6.40;;;;;;;18.72;57.48;98353.25;4454154;32;20169;-79
2022/05/01 07:05:57;;;;;;;9.70;4.12;;;;;;;19.48;54.69;98349.47;4455484;32;20097;-79
2022/05/01 07:08:24;;;;;;;10.30;5.03;;;;;;;20.23;50.22;98355.13;4455045;32;20103;-79
2022/05/01 07:10:51;;;;;;;12.00;5.53;;;;;;;20.57;48.37;98349.91;4455389;32;20096;-79
2022/05/01 07:13:23;;;;;;;9.88;4.62;;;;;;;20.84;48.63;98345.09;4455430;32;20101;-79
2022/05/01 07:15:50;;;;;;;8.73;3.80;;;;;;;22.01;46.15;98352.97;4454694;32;20101;-80
2022/05/01 07:18:17;;;;;;;10.32;4.05;;;;;;;21.61;45.25;98342.34;4455014;32;20089;-80
2022/05/01 07:20:45;;;;;;;6.82;2.90;;;;;;;21.19;46.23;98339.63;4455107;32;20427;-80
2022/05/01 07:23:12;;;;;;;9.60;3.70;;;;;;;21.24;45.61;98326.94;4455064;32;20112;-80
2022/05/01 07:25:39;;;;;;;12.63;5.12;;;;;;;21.05;46.94;98335.50;4455124;32;20462;-80
2022/05/01 07:28:06;;;;;;;9.80;3.40;;;;;;;21.87;43.28;98348.84;4455158;32;20107;-80
2022/05/01 07:30:33;;;;;;;10.23;4.10;;;;;;;21.11;44.80;98333.31;4454802;32;20435;-80
2022/05/01 07:33:01;;;;;;;8.32;3.45;;;;;;;21.31;44.92;98345.69;4455077;32;20151;-80
2022/05/01 07:35:27;;;;;;;8.27;3.55;;;;;;;20.84;44.23;98345.09;4454501;32;20527;-79
2022/05/01 07:38:00;;;;;;;6.37;3.37;;;;;;;21.38;43.65;98339.00;4454978;32;20112;-76
2022/05/01 07:40:27;;;;;;;10.77;5.35;;;;;;;21.73;45.09;98340.47;4454831;32;20103;-77
2022/05/01 07:42:54;;;;;;;6.22;2.50;;;;;;;22.10;44.29;98344.31;4454573;32;20153;-77
2022/05/01 07:45:21;;;;;;;12.32;6.53;;;;;;;22.40;43.46;98340.03;4454775;32;20109;-77
2022/05/01 07:47:55;;;;;;;10.25;4.82;;;;;;;21.61;44.44;98331.84;4454842;32;20099;-77
2022/05/01 07:50:22;;;;;;;10.75;4.95;;;;;;;22.31;43.90;98336.38;4454387;32;20140;-77
2022/05/01 07:52:49;;;;;;;10.30;4.70;;;;;;;21.98;44.81;98329.56;4454668;32;20105;-77
2022/05/01 07:55:16;;;;;;;11.15;5.80;;;;;;;21.90;45.68;98326.75;4454655;32;20111;-77
2022/05/01 07:57:43;;;;;;;12.18;5.10;;;;;;;22.67;43.59;98334.16;4454375;32;20089;-78
2022/05/01 08:00:13;;;;;;;11.50;6.00;;;;;;;22.64;44.14;98329.16;4456472;32;20069;-77
2022/05/01 08:05:27;;;;;;;10.93;5.10;;;;;;;23.69;42.47;98335.53;4456721;32;20105;-78
2022/05/01 08:07:55;;;;;;;11.30;5.65;;;;;;;22.38;44.98;98334.91;4457024;32;20169;-77
2022/05/01 08:10:22;;;;;;;11.55;6.00;;;;;;;22.23;45.53;98330.97;4456080;32;20562;-77
2022/05/01 08:12:49;;;;;;;13.52;5.57;;;;;;;22.35;45.90;98332.53;4456821;32;20105;-78
2022/05/01 08:15:17;;;;;;;11.07;5.97;;;;;;;23.72;42.21;98332.63;4456797;32;20161;-77
2022/05/01 08:17:45;;;;;;;9.38;3.70;;;;;;;22.80;45.17;98325.06;4456537;32;20085;-77
2022/05/01 08:23:03;;;;;;;11.05;5.78;;;;;;;22.77;45.18;98324.50;4456951;32;20089;-77
2022/05/01 08:25:30;;;;;;;10.38;4.72;;;;;;;22.13;45.75;98319.59;4442483;32;20113;-77
2022/05/01 08:27:57;;;;;;;12.45;4.93;;;;;;;21.91;45.53;98316.13;4456903;32;20152;-77
2022/05/01 08:30:24;;;;;;;11.07;5.80;;;;;;;22.75;45.53;98326.41;4456664;32;20141;-78
2022/05/01 08:32:51;;;;;;;8.07;3.58;;;;;;;23.48;43.55;98329.56;4456466;32;20141;-79
2022/05/01 08:35:18;;;;;;;6.28;2.50;;;;;;;23.24;37.84;98328.19;4456479;32;20156;-76
2022/05/01 08:37:45;;;;;;;8.82;3.03;;;;;;;22.57;38.14;98333.31;4456659;32;20199;-77
2022/05/01 08:40:13;;;;;;;6.25;2.70;;;;;;;22.77;37.57;98322.72;4456378;32;20555;-77
2022/05/01 08:42:40;;;;;;;6.40;2.62;;;;;;;23.12;38.27;98325.81;4442811;32;20215;-77
2022/05/01 08:45:13;;;;;;;6.20;2.67;;;;;;;22.52;38.88;98316.13;4442598;32;20160;-77
2022/05/01 08:47:55;;;;;;;5.90;2.47;;;;;;;22.77;38.74;98325.34;4442478;32;20088;-77
2022/05/01 08:50:23;;;;;;;5.50;2.33;;;;;;;23.03;38.13;98316.94;4456683;32;20242;-77
2022/05/01 08:52:50;;;;;;;6.82;2.53;;;;;;;22.41;39.57;98325.91;4442339;32;20092;-77
2022/05/01 08:55:18;;;;;;;5.47;2.42;;;;;;;22.78;37.00;98316.47;4442633;32;20162;-78
2022/05/01 08:57:45;;;;;;;4.60;1.90;;;;;;;22.59;37.68;98319.06;4442659;32;20084;-78
2022/05/01 09:00:16;;;;;;;5.43;2.55;;;;;;;22.61;36.59;98316.28;4456250;32;20156;-77
2022/05/01 09:02:44;;;;;;;4.20;2.00;;;;;;;23.12;36.31;98321.38;4442671;32;20157;-77
2022/05/01 09:05:13;;;;;;;4.30;2.37;;;;;;;22.66;38.62;98312.31;4442637;32;20132;-77
2022/05/01 09:07:40;;;;;;;5.07;2.00;;;;;;;21.94;37.23;98321.12;4456216;32;20100;-77
2022/05/01 09:10:08;;;;;;;4.95;2.22;;;;;;;22.46;35.71;98316.66;4456080;32;20156;-77
2022/05/01 09:12:52;;;;;;;6.57;2.00;;;;;;;22.02;37.93;98311.75;4456466;32;20146;-77
2022/05/01 09:15:30;;;;;;;5.90;1.70;;;;;;;22.96;38.93;98310.56;4444188;32;20474;-77
2022/05/01 09:18:02;;;;;;;5.50;2.03;;;;;;;22.95;33.70;98312.34;4456425;32;20522;-77
2022/05/01 09:20:30;;;;;;;3.85;1.95;;;;;;;23.03;35.61;98316.94;4442143;32;20146;-77
2022/05/01 09:22:59;;;;;;;5.03;2.25;;;;;;;23.26;33.93;98317.50;4456425;32;20105;-77
2022/05/01 09:25:27;;;;;;;4.68;1.70;;;;;;;23.39;34.16;98318.03;4456196;32;20409;-78
2022/05/01 09:28:02;;;;;;;4.95;2.00;;;;;;;23.07;35.76;98310.44;4442260;32;20484;-77
2022/05/01 09:30:34;;;;;;;4.00;1.98;;;;;;;23.53;35.79;98322.09;4456403;32;20180;-77
2022/05/01 09:33:02;;;;;;;3.05;1.75;;;;;;;23.12;36.78;98305.59;4442483;32;20113;-77
2022/05/01 09:35:33;;;;;;;4.05;1.70;;;;;;;22.64;35.23;98318.63;4455768;32;20133;-77
2022/05/01 09:38:13;;;;;;;4.65;2.03;;;;;;;23.05;34.34;98313.19;4442224;32;20152;-78
2022/05/01 09:40:40;;;;;;;4.65;1.98;;;;;;;23.30;35.18;98317.09;4456397;32;20151;-78
2022/05/01 09:43:07;;;;;;;3.78;2.10;;;;;;;24.37;34.33;98322.19;4455967;32;20141;-78
2022/05/01 09:45:34;;;;;;;4.60;2.25;;;;;;;24.43;32.01;98306.59;4456097;32;20163;-78
2022/05/01 09:48:26;;;;;;;4.50;2.20;;;;;;;24.76;33.43;98321.00;4456293;32;20100;-78
2022/05/01 09:50:53;;;;;;;4.32;1.85;;;;;;;23.48;36.54;98319.03;4456021;32;20120;-77
2022/05/01 09:53:20;;;;;;;3.83;1.83;;;;;;;23.02;35.88;98304.75;4456219;32;20096;-77
2022/05/01 09:55:59;;;;;;;5.65;2.25;;;;;;;23.19;36.74;98309.34;4455766;32;20144;-77
2022/05/01 09:58:31;;;;;;;5.50;2.15;;;;;;;22.38;36.95;98320.94;4456076;32;20101;-77
2022/05/01 10:00:58;;;;;;;5.72;2.15;;;;;;;22.48;36.94;98317.37;4456291;32;20111;-77
2022/05/01 10:03:26;;;;;;;5.35;2.30;;;;;;;23.18;36.78;98305.06;4441923;32;20467;-77
2022/05/01 10:05:54;;;;;;;5.20;2.20;;;;;;;23.28;36.96;98312.94;4456138;32;20518;-77
2022/05/01 10:08:21;;;;;;;5.93;2.25;;;;;;;23.12;37.46;98313.50;4456190;32;20168;-77
2022/05/01 10:10:51;;;;;;;6.00;2.10;;;;;;;22.87;35.59;98316.66;4455821;32;20519;-77
2022/05/01 10:13:18;;;;;;;7.18;2.35;;;;;;;22.36;38.29;98309.72;4456142;32;20096;-77
2022/05/01 10:16:03;;;;;;;6.43;2.17;;;;;;;22.45;38.19;98293.97;4455966;32;20585;-77
2022/05/01 10:18:31;;;;;;;4.55;1.75;;;;;;;23.00;37.60;98291.75;4441727;32;20158;-77
2022/05/01 10:20:58;;;;;;;7.28;2.22;;;;;;;23.34;34.47;98313.22;4456044;32;20077;-78
2022/05/01 10:23:26;;;;;;;5.03;2.12;;;;;;;22.98;34.72;98290.22;4454706;32;20164;-78
2022/05/01 10:26:07;;;;;;;5.43;2.17;;;;;;;23.83;35.94;98303.47;4441656;32;20111;-78
2022/05/01 10:29:09;;;;;;;5.85;2.05;;;;;;;23.87;34.75;98298.75;4455659;32;20160;-78
2022/05/01 10:34:59;;;;;;;6.10;2.30;;;;;;;22.57;36.55;98289.44;4455707;32;20207;-78
2022/05/01 10:38:01;;;;;;;5.12;2.25;;;;;;;23.17;34.84;98281.47;4441933;32;20140;-78
2022/05/01 10:40:40;;;;;;;6.28;2.47;;;;;;;23.00;35.37;98290.91;4455783;32;20490;-78
2022/05/01 10:43:27;;;;;;;6.35;2.72;;;;;;;23.42;35.67;98288.00;4455858;32;20099;-77
2022/05/01 10:45:56;;;;;;;6.15;2.30;;;;;;;23.34;34.93;98291.31;4455402;32;20105;-78
2022/05/01 10:48:36;;;;;;;6.75;2.50;;;;;;;23.64;34.39;98282.44;4455779;32;20146;-78
2022/05/01 10:51:27;;;;;;;4.97;2.58;;;;;;;24.28;34.21;98270.28;4455773;32;20085;-78
2022/05/01 10:54:10;;;;;;;6.70;2.53;;;;;;;23.10;35.74;98278.59;4455380;32;20108;-78
2022/05/01 10:56:45;;;;;;;5.00;2.33;;;;;;;23.74;36.27;98285.87;4455684;32;20519;-78
2022/05/01 10:59:35;;;;;;;6.22;2.37;;;;;;;24.13;33.23;98269.94;4455383;32;20123;-78
2022/05/01 11:02:29;;;;;;;5.62;2.35;;;;;;;24.41;33.65;98257.63;4455657;32;20145;-78
2022/05/01 11:04:57;;;;;;;5.95;2.05;;;;;;;23.81;35.01;98272.97;4455539;32;20092;-78
2022/05/01 11:07:26;;;;;;;5.95;2.03;;;;;;;24.08;33.41;98249.28;4455229;32;20173;-77
2022/05/01 11:09:58;;;;;;;7.20;2.30;;;;;;;24.12;32.38;98257.72;4455432;32;20156;-77
2022/05/01 11:12:26;;;;;;;5.12;2.37;;;;;;;23.88;35.76;98266.97;4455516;32;20431;-77
2022/05/01 11:15:04;;;;;;;5.35;2.10;;;;;;;23.69;34.27;98263.56;4441199;32;20408;-77
2022/05/01 11:17:40;;;;;;;5.32;2.17;;;;;;;22.14;35.95;98252.94;4455219;32;20165;-78
2022/05/01 11:20:19;;;;;;;8.45;2.20;;;;;;;22.74;35.52;98253.75;4454820;32;20152;-77
2022/05/01 11:22:46;;;;;;;6.55;2.10;;;;;;;22.34;35.82;98256.44;4455396;32;20180;-77
2022/05/01 11:25:33;;;;;;;4.32;2.22;;;;;;;22.67;35.40;98253.47;4455091;32;20069;-77
2022/05/01 11:28:00;;;;;;;4.73;2.17;;;;;;;23.30;36.90;98251.28;4455025;32;20150;-78
2022/05/01 11:30:27;;;;;;;4.03;2.37;;;;;;;23.11;36.19;98250.47;4441134;32;20447;-78
2022/05/01 11:33:06;;;;;;;5.03;2.28;;;;;;;23.30;36.89;98253.94;4455141;32;20479;-77
2022/05/01 11:35:55;;;;;;;6.25;2.60;;;;;;;23.66;35.21;98249.72;4456614;32;20134;-77
2022/05/01 11:38:23;;;;;;;8.70;2.60;;;;;;;22.92;35.43;98243.41;4443466;32;20160;-77
2022/05/01 11:40:57;;;;;;;5.78;2.08;;;;;;;22.99;35.47;98236.62;4456845;32;20101;-77
2022/05/01 11:43:24;;;;;;;5.97;2.00;;;;;;;23.58;35.33;98233.78;4457119;32;20093;-77
2022/05/01 11:45:51;;;;;;;10.40;2.35;;;;;;;23.35;34.34;98228.00;4430368;32;20136;-78
2022/05/01 11:48:20;;;;;;;4.25;2.28;;;;;;;22.98;35.38;98213.91;4442753;32;20141;-77
2022/05/01 11:50:52;;;;;;;4.22;1.85;;;;;;;23.33;34.74;98223.84;4457127;32;20466;-77
2022/05/01 11:53:24;;;;;;;5.10;2.17;;;;;;;22.71;34.41;98217.19;4443235;32;20487;-77
2022/05/01 12:04:34;;;;;;;6.70;2.70;;;;;;;23.99;35.78;98208.00;4456915;32;20097;-78
2022/05/01 12:07:04;;;;;;;5.75;2.35;;;;;;;23.47;34.91;98219.94;4456964;32;20152;-78
2022/05/01 12:09:35;;;;;;;6.20;2.45;;;;;;;22.96;36.83;98219.28;4456534;32;20089;-78